Ulm, MT (59485)

10:34 PM MDT on September 15, 2014 (GMT -0600)
Great Falls International | Change Station
CLOSE
Current Station
Airport
Location: Great Falls,
Elevation: 3658 ft
Nearby Weather Stations

Elev 3658 ft 47.47 °N, 111.38 °W | Updated 41 minutes ago

Clear
Clear
56 °F
Feels Like 56 °F
N
6
Wind Variable Wind from East

Today
High -- | Low -- °F
--% Chance of Precip.
Yesterday
High -- | Low -- °F
Precip. -- in
7:03 AM 7:38 PM
Waning Gibbous, 49% visible
Pressure 30.00 in
Visibility 10.0 miles
Clouds Clear
Dew Point 41 °F
Humidity 57%
Rainfall 0.00 in
Snow Depth 0 in , 0 in , 0 in
UV 0 out of 12
Pollen 6.80 out of 12
Air Quality Not available.
Flu Activity Not available.
METAR KGTF 160353Z 10005KT 10SM CLR 13/05 A3002 RMK AO2 SLP157 T01330050 $

More Conditions Fewer Conditions

Pressure 30.00 in
Visibility 10.0 miles
Clouds Clear
Dew Point 41 °F
Humidity 57%
Rainfall 0.00 in
Snow Depth 0 in , 0 in , 0 in
UV 0 out of 12
Pollen 6.80 out of 12
Air Quality Not available.
Flu Activity Not available.
METAR KGTF 160353Z 10005KT 10SM CLR 13/05 A3002 RMK AO2 SLP157 T01330050 $

More Conditions Fewer Conditions

10-Day Weather Forecast

Almanac

Astronomy

Sep. 15, 2014 Rise Set
Actual Time 7:03 AM MDT 7:38 PM MDT
Civil Twilight 6:32 AM MDT 8:08 PM MDT
Nautical Twilight 5:56 AM MDT 8:45 PM MDT
Astronomical Twilight 5:17 AM MDT 9:23 PM MDT
Moon No Moon Rise 2:31 PM MDT (9/15)
Length of Visible Light 13h 36m
Length of Day
12h 34m
Tomorrow will be 3m 22s shorter.
Waning Gibbous, 49% of the Moon is Illuminated
Sep 16
Waning Gibbous
Sep 24
New
Oct 1
First Quarter
Oct 8
Full
Oct 15
Last Quarter

Yesterday's Extremes

State Highs State Lows

Community

WunderPhotos

Upload Photos

1,753,702 photos uploaded!

Nearby

Snow Depth

Station Depth Elevation
Spur Park 0 in 8100 ft
Calvert Creek 0 in 6430 ft
Rocker Peak 0 in 8000 ft
Wood Creek 1 in 5960 ft
Cole Creek 1 in 7850 ft

Earthquake Activity

City Distance Mag. Time & Date
No recent earthquake activity has been reported nearby.
Minimum magnitude displayed is 2.5.

Coastal Water Temperatures

Place Temperature
No Stations Reporting

Nearby Weather Stations